sensor_id;sensor_type;location;lat;lon;timestamp;pressure;altitude;pressure_sealevel;temperature;humidity
79703;BME280;69172;52.352;5.006;2023-12-04T00:01:30;101278.06;;;1.46;100.00
79703;BME280;69172;52.352;5.006;2023-12-04T00:03:57;101261.81;;;1.44;100.00
79703;BME280;69172;52.352;5.006;2023-12-04T00:06:23;101270.47;;;1.46;100.00
79703;BME280;69172;52.352;5.006;2023-12-04T00:08:48;101274.94;;;1.49;100.00
79703;BME280;69172;52.352;5.006;2023-12-04T00:11:14;101275.09;;;1.50;100.00
79703;BME280;69172;52.352;5.006;2023-12-04T00:13:39;101261.69;;;1.51;100.00
79703;BME280;69172;52.352;5.006;2023-12-04T00:16:05;101254.50;;;1.47;100.00
79703;BME280;69172;52.352;5.006;2023-12-04T00:18:31;101258.25;;;1.51;100.00
79703;BME280;69172;52.352;5.006;2023-12-04T00:20:56;101262.72;;;1.53;100.00
79703;BME280;69172;52.352;5.006;2023-12-04T00:23:23;101254.50;;;1.56;100.00
79703;BME280;69172;52.352;5.006;2023-12-04T00:25:48;101252.72;;;1.63;100.00
79703;BME280;69172;52.352;5.006;2023-12-04T00:28:13;101249.75;;;1.59;100.00
79703;BME280;69172;52.352;5.006;2023-12-04T00:30:39;101242.75;;;1.56;100.00
79703;BME280;69172;52.352;5.006;2023-12-04T00:33:05;101235.13;;;1.48;100.00
79703;BME280;69172;52.352;5.006;2023-12-04T00:35:30;101226.50;;;1.54;100.00
79703;BME280;69172;52.352;5.006;2023-12-04T00:38:02;101231.41;;;1.53;100.00
79703;BME280;69172;52.352;5.006;2023-12-04T00:40:28;101234.25;;;1.56;100.00
79703;BME280;69172;52.352;5.006;2023-12-04T00:42:53;101233.03;;;1.52;100.00
79703;BME280;69172;52.352;5.006;2023-12-04T00:45:18;101231.69;;;1.56;100.00
79703;BME280;69172;52.352;5.006;2023-12-04T00:47:43;101234.41;;;1.57;100.00
79703;BME280;69172;52.352;5.006;2023-12-04T00:50:11;101236.34;;;1.60;100.00
79703;BME280;69172;52.352;5.006;2023-12-04T00:52:36;101232.59;;;1.56;100.00
79703;BME280;69172;52.352;5.006;2023-12-04T00:55:03;101225.72;;;1.64;100.00
79703;BME280;69172;52.352;5.006;2023-12-04T00:57:28;101228.72;;;1.60;100.00
79703;BME280;69172;52.352;5.006;2023-12-04T00:59:55;101225.91;;;1.57;100.00
79703;BME280;69172;52.352;5.006;2023-12-04T01:02:20;101230.66;;;1.62;100.00
79703;BME280;69172;52.352;5.006;2023-12-04T01:04:45;101219.47;;;1.60;100.00
79703;BME280;69172;52.352;5.006;2023-12-04T01:07:11;101215.28;;;1.61;100.00
79703;BME280;69172;52.352;5.006;2023-12-04T01:09:36;101208.47;;;1.60;100.00
79703;BME280;69172;52.352;5.006;2023-12-04T01:12:02;101199.06;;;1.59;100.00
79703;BME280;69172;52.352;5.006;2023-12-04T01:14:28;101198.16;;;1.58;100.00
79703;BME280;69172;52.352;5.006;2023-12-04T01:16:53;101197.13;;;1.56;100.00
79703;BME280;69172;52.352;5.006;2023-12-04T01:19:18;101200.09;;;1.61;100.00
79703;BME280;69172;52.352;5.006;2023-12-04T01:21:45;101205.44;;;1.64;100.00
79703;BME280;69172;52.352;5.006;2023-12-04T01:24:11;101193.69;;;1.64;100.00
79703;BME280;69172;52.352;5.006;2023-12-04T01:26:37;101185.47;;;1.58;100.00
79703;BME280;69172;52.352;5.006;2023-12-04T01:29:02;101187.88;;;1.57;100.00
79703;BME280;69172;52.352;5.006;2023-12-04T01:31:28;101186.84;;;1.55;100.00
79703;BME280;69172;52.352;5.006;2023-12-04T01:33:53;101187.59;;;1.54;100.00
79703;BME280;69172;52.352;5.006;2023-12-04T01:36:19;101184.16;;;1.53;100.00
79703;BME280;69172;52.352;5.006;2023-12-04T01:38:46;101189.50;;;1.56;100.00
79703;BME280;69172;52.352;5.006;2023-12-04T01:41:13;101179.25;;;1.55;100.00
79703;BME280;69172;52.352;5.006;2023-12-04T01:43:39;101178.94;;;1.52;100.00
79703;BME280;69172;52.352;5.006;2023-12-04T01:46:04;101174.19;;;1.46;100.00
79703;BME280;69172;52.352;5.006;2023-12-04T01:48:33;101174.50;;;1.41;100.00
79703;BME280;69172;52.352;5.006;2023-12-04T01:51:00;101175.66;;;1.44;100.00
79703;BME280;69172;52.352;5.006;2023-12-04T01:53:28;101177.16;;;1.42;100.00
79703;BME280;69172;52.352;5.006;2023-12-04T01:55:54;101170.59;;;1.44;100.00
79703;BME280;69172;52.352;5.006;2023-12-04T01:58:20;101171.06;;;1.40;100.00
79703;BME280;69172;52.352;5.006;2023-12-04T02:00:47;101169.13;;;1.46;100.00
79703;BME280;69172;52.352;5.006;2023-12-04T02:03:14;101163.88;;;1.45;100.00
79703;BME280;69172;52.352;5.006;2023-12-04T02:05:44;101165.50;;;1.44;100.00
79703;BME280;69172;52.352;5.006;2023-12-04T02:08:23;101150.31;;;1.44;100.00
79703;BME280;69172;52.352;5.006;2023-12-04T02:10:55;101147.47;;;1.50;100.00
79703;BME280;69172;52.352;5.006;2023-12-04T02:13:34;101147.03;;;1.45;100.00
79703;BME280;69172;52.352;5.006;2023-12-04T02:16:09;101152.13;;;1.45;100.00
79703;BME280;69172;52.352;5.006;2023-12-04T02:18:34;101144.69;;;1.47;100.00
79703;BME280;69172;52.352;5.006;2023-12-04T02:21:00;101138.53;;;1.45;100.00
79703;BME280;69172;52.352;5.006;2023-12-04T02:23:26;101152.53;;;1.50;100.00
79703;BME280;69172;52.352;5.006;2023-12-04T02:25:57;101153.44;;;1.50;100.00
79703;BME280;69172;52.352;5.006;2023-12-04T02:28:26;101141.53;;;1.49;100.00
79703;BME280;69172;52.352;5.006;2023-12-04T02:30:52;101134.38;;;1.45;100.00
79703;BME280;69172;52.352;5.006;2023-12-04T02:33:23;101141.06;;;1.45;100.00
79703;BME280;69172;52.352;5.006;2023-12-04T02:35:50;101131.84;;;1.45;100.00
79703;BME280;69172;52.352;5.006;2023-12-04T02:38:18;101116.63;;;1.45;100.00
79703;BME280;69172;52.352;5.006;2023-12-04T02:40:44;101117.84;;;1.49;100.00
79703;BME280;69172;52.352;5.006;2023-12-04T02:43:10;101109.78;;;1.44;100.00
79703;BME280;69172;52.352;5.006;2023-12-04T02:45:36;101113.69;;;1.41;100.00
79703;BME280;69172;52.352;5.006;2023-12-04T02:48:01;101120.50;;;1.42;100.00
79703;BME280;69172;52.352;5.006;2023-12-04T02:50:28;101107.84;;;1.42;100.00
79703;BME280;69172;52.352;5.006;2023-12-04T02:52:53;101109.78;;;1.44;100.00
79703;BME280;69172;52.352;5.006;2023-12-04T02:55:19;101109.63;;;1.43;100.00
79703;BME280;69172;52.352;5.006;2023-12-04T02:57:45;101098.31;;;1.39;100.00
79703;BME280;69172;52.352;5.006;2023-12-04T03:00:12;101094.44;;;1.43;100.00
79703;BME280;69172;52.352;5.006;2023-12-04T03:02:38;101083.72;;;1.37;100.00
79703;BME280;69172;52.352;5.006;2023-12-04T03:05:05;101081.47;;;1.40;100.00
79703;BME280;69172;52.352;5.006;2023-12-04T03:07:30;101078.22;;;1.41;100.00
79703;BME280;69172;52.352;5.006;2023-12-04T03:09:57;101074.31;;;1.44;100.00
79703;BME280;69172;52.352;5.006;2023-12-04T03:12:22;101066.56;;;1.43;100.00
79703;BME280;69172;52.352;5.006;2023-12-04T03:14:47;101066.53;;;1.51;100.00
79703;BME280;69172;52.352;5.006;2023-12-04T03:17:13;101059.69;;;1.50;100.00
79703;BME280;69172;52.352;5.006;2023-12-04T03:19:39;101067.88;;;1.48;100.00
79703;BME280;69172;52.352;5.006;2023-12-04T03:22:05;101055.69;;;1.44;100.00
79703;BME280;69172;52.352;5.006;2023-12-04T03:24:30;101058.97;;;1.43;100.00
79703;BME280;69172;52.352;5.006;2023-12-04T03:26:55;101054.94;;;1.45;100.00
79703;BME280;69172;52.352;5.006;2023-12-04T03:29:21;101053.00;;;1.42;100.00
79703;BME280;69172;52.352;5.006;2023-12-04T03:31:46;101052.56;;;1.46;100.00
79703;BME280;69172;52.352;5.006;2023-12-04T03:34:11;101050.63;;;1.44;100.00
79703;BME280;69172;52.352;5.006;2023-12-04T03:36:37;101040.31;;;1.42;100.00
79703;BME280;69172;52.352;5.006;2023-12-04T03:39:02;101025.44;;;1.37;100.00
79703;BME280;69172;52.352;5.006;2023-12-04T03:41:28;101040.03;;;1.39;100.00
79703;BME280;69172;52.352;5.006;2023-12-04T03:43:53;101027.53;;;1.41;100.00
79703;BME280;69172;52.352;5.006;2023-12-04T03:46:18;101023.81;;;1.37;100.00
79703;BME280;69172;52.352;5.006;2023-12-04T03:48:45;101021.16;;;1.36;100.00
79703;BME280;69172;52.352;5.006;2023-12-04T03:51:10;101017.09;;;1.38;100.00
79703;BME280;69172;52.352;5.006;2023-12-04T03:53:35;101022.91;;;1.37;100.00
79703;BME280;69172;52.352;5.006;2023-12-04T03:56:01;101018.75;;;1.37;100.00
79703;BME280;69172;52.352;5.006;2023-12-04T03:58:26;101008.19;;;1.33;100.00
79703;BME280;69172;52.352;5.006;2023-12-04T04:00:52;100996.56;;;1.26;100.00
79703;BME280;69172;52.352;5.006;2023-12-04T04:03:17;101004.88;;;1.34;100.00
79703;BME280;69172;52.352;5.006;2023-12-04T04:05:42;100997.00;;;1.31;100.00
79703;BME280;69172;52.352;5.006;2023-12-04T04:08:07;100995.22;;;1.30;100.00
79703;BME280;69172;52.352;5.006;2023-12-04T04:10:34;100995.38;;;1.23;100.00
79703;BME280;69172;52.352;5.006;2023-12-04T04:12:59;100990.31;;;1.23;100.00
79703;BME280;69172;52.352;5.006;2023-12-04T04:15:26;100981.09;;;1.23;100.00
79703;BME280;69172;52.352;5.006;2023-12-04T04:17:52;100983.91;;;1.26;100.00
79703;BME280;69172;52.352;5.006;2023-12-04T04:20:17;100976.91;;;1.24;100.00
79703;BME280;69172;52.352;5.006;2023-12-04T04:22:43;100979.16;;;1.20;100.00
79703;BME280;69172;52.352;5.006;2023-12-04T04:25:09;100973.50;;;1.14;100.00
79703;BME280;69172;52.352;5.006;2023-12-04T04:27:35;100978.72;;;1.16;100.00
79703;BME280;69172;52.352;5.006;2023-12-04T04:30:02;100969.03;;;1.12;100.00
79703;BME280;69172;52.352;5.006;2023-12-04T04:32:27;100973.38;;;1.13;100.00
79703;BME280;69172;52.352;5.006;2023-12-04T04:34:53;100976.66;;;1.12;100.00
79703;BME280;69172;52.352;5.006;2023-12-04T04:37:21;100974.88;;;1.11;100.00
79703;BME280;69172;52.352;5.006;2023-12-04T04:39:47;100972.06;;;1.08;100.00
79703;BME280;69172;52.352;5.006;2023-12-04T04:42:13;100969.34;;;1.15;100.00
79703;BME280;69172;52.352;5.006;2023-12-04T04:44:39;100969.81;;;1.11;100.00
79703;BME280;69172;52.352;5.006;2023-12-04T04:47:04;100957.91;;;1.10;100.00
79703;BME280;69172;52.352;5.006;2023-12-04T04:49:29;100962.34;;;1.12;100.00
79703;BME280;69172;52.352;5.006;2023-12-04T04:51:56;100956.09;;;1.09;100.00
79703;BME280;69172;52.352;5.006;2023-12-04T04:54:22;100953.44;;;1.07;100.00
79703;BME280;69172;52.352;5.006;2023-12-04T04:56:48;100949.56;;;1.11;100.00
79703;BME280;69172;52.352;5.006;2023-12-04T04:59:13;100954.47;;;1.09;100.00
79703;BME280;69172;52.352;5.006;2023-12-04T05:01:38;100947.56;;;1.17;100.00
79703;BME280;69172;52.352;5.006;2023-12-04T05:04:04;100948.47;;;1.17;100.00
79703;BME280;69172;52.352;5.006;2023-12-04T05:06:29;100945.81;;;1.16;100.00
79703;BME280;69172;52.352;5.006;2023-12-04T05:08:55;100947.00;;;1.19;100.00
79703;BME280;69172;52.352;5.006;2023-12-04T05:11:21;100940.13;;;1.18;100.00
79703;BME280;69172;52.352;5.006;2023-12-04T05:13:46;100941.94;;;1.19;100.00
79703;BME280;69172;52.352;5.006;2023-12-04T05:16:12;100934.03;;;1.16;100.00
79703;BME280;69172;52.352;5.006;2023-12-04T05:18:41;100935.50;;;1.23;100.00
79703;BME280;69172;52.352;5.006;2023-12-04T05:21:11;100933.53;;;1.29;100.00
79703;BME280;69172;52.352;5.006;2023-12-04T05:23:37;100927.72;;;1.30;100.00
79703;BME280;69172;52.352;5.006;2023-12-04T05:26:04;100924.44;;;1.31;100.00
79703;BME280;69172;52.352;5.006;2023-12-04T05:28:30;100910.13;;;1.32;100.00
79703;BME280;69172;52.352;5.006;2023-12-04T05:30:55;100914.91;;;1.29;100.00
79703;BME280;69172;52.352;5.006;2023-12-04T05:33:20;100907.47;;;1.30;100.00
79703;BME280;69172;52.352;5.006;2023-12-04T05:35:47;100896.72;;;1.33;100.00
79703;BME280;69172;52.352;5.006;2023-12-04T05:38:13;100905.34;;;1.35;100.00
79703;BME280;69172;52.352;5.006;2023-12-04T05:40:38;100895.50;;;1.38;100.00
79703;BME280;69172;52.352;5.006;2023-12-04T05:43:04;100893.69;;;1.37;100.00
79703;BME280;69172;52.352;5.006;2023-12-04T05:45:30;100889.53;;;1.37;100.00
79703;BME280;69172;52.352;5.006;2023-12-04T05:47:55;100885.50;;;1.39;100.00
79703;BME280;69172;52.352;5.006;2023-12-04T05:50:23;100881.47;;;1.41;100.00
79703;BME280;69172;52.352;5.006;2023-12-04T05:52:50;100882.34;;;1.42;100.00
79703;BME280;69172;52.352;5.006;2023-12-04T05:55:15;100887.41;;;1.42;100.00
79703;BME280;69172;52.352;5.006;2023-12-04T05:57:44;100885.66;;;1.41;100.00
79703;BME280;69172;52.352;5.006;2023-12-04T06:00:12;100879.19;;;1.44;100.00
79703;BME280;69172;52.352;5.006;2023-12-04T06:02:44;100871.25;;;1.50;100.00
79703;BME280;69172;52.352;5.006;2023-12-04T06:05:10;100875.19;;;1.46;100.00
79703;BME280;69172;52.352;5.006;2023-12-04T06:07:36;100882.00;;;1.47;100.00
79703;BME280;69172;52.352;5.006;2023-12-04T06:10:03;100877.28;;;1.42;100.00
79703;BME280;69172;52.352;5.006;2023-12-04T06:12:31;100880.09;;;1.45;100.00
79703;BME280;69172;52.352;5.006;2023-12-04T06:14:57;100863.25;;;1.45;100.00
79703;BME280;69172;52.352;5.006;2023-12-04T06:17:24;100870.84;;;1.45;100.00
79703;BME280;69172;52.352;5.006;2023-12-04T06:19:50;100870.13;;;1.46;100.00
79703;BME280;69172;52.352;5.006;2023-12-04T06:22:16;100878.47;;;1.45;100.00
79703;BME280;69172;52.352;5.006;2023-12-04T06:24:44;100871.75;;;1.46;100.00
79703;BME280;69172;52.352;5.006;2023-12-04T06:27:12;100871.00;;;1.47;100.00
79703;BME280;69172;52.352;5.006;2023-12-04T06:29:40;100862.34;;;1.45;100.00
79703;BME280;69172;52.352;5.006;2023-12-04T06:32:06;100858.47;;;1.48;100.00
79703;BME280;69172;52.352;5.006;2023-12-04T06:34:31;100861.41;;;1.53;100.00
79703;BME280;69172;52.352;5.006;2023-12-04T06:36:57;100849.91;;;1.56;100.00
79703;BME280;69172;52.352;5.006;2023-12-04T06:39:25;100849.72;;;1.63;100.00
79703;BME280;69172;52.352;5.006;2023-12-04T06:41:52;100844.63;;;1.63;100.00
79703;BME280;69172;52.352;5.006;2023-12-04T06:44:17;100843.16;;;1.65;100.00
79703;BME280;69172;52.352;5.006;2023-12-04T06:46:48;100835.97;;;1.70;100.00
79703;BME280;69172;52.352;5.006;2023-12-04T06:49:34;100828.34;;;1.70;100.00
79703;BME280;69172;52.352;5.006;2023-12-04T06:52:14;100833.75;;;1.64;100.00
79703;BME280;69172;52.352;5.006;2023-12-04T06:55:04;100840.00;;;1.68;100.00
79703;BME280;69172;52.352;5.006;2023-12-04T06:57:47;100837.81;;;1.62;100.00
79703;BME280;69172;52.352;5.006;2023-12-04T07:00:20;100844.34;;;1.60;100.00
79703;BME280;69172;52.352;5.006;2023-12-04T07:03:06;100839.16;;;1.59;100.00
79703;BME280;69172;52.352;5.006;2023-12-04T07:05:32;100841.41;;;1.56;100.00
79703;BME280;69172;52.352;5.006;2023-12-04T07:07:59;100831.44;;;1.57;100.00
79703;BME280;69172;52.352;5.006;2023-12-04T07:10:24;100834.09;;;1.59;100.00
79703;BME280;69172;52.352;5.006;2023-12-04T07:12:50;100824.97;;;1.61;100.00
79703;BME280;69172;52.352;5.006;2023-12-04T07:15:17;100820.81;;;1.61;100.00
79703;BME280;69172;52.352;5.006;2023-12-04T07:17:43;100817.53;;;1.62;100.00
79703;BME280;69172;52.352;5.006;2023-12-04T07:20:09;100819.44;;;1.65;100.00
79703;BME280;69172;52.352;5.006;2023-12-04T07:22:37;100816.13;;;1.66;100.00
79703;BME280;69172;52.352;5.006;2023-12-04T07:25:03;100807.66;;;1.65;100.00
79703;BME280;69172;52.352;5.006;2023-12-04T07:27:33;100814.84;;;1.79;100.00
79703;BME280;69172;52.352;5.006;2023-12-04T07:29:59;100811.91;;;1.75;100.00
79703;BME280;69172;52.352;5.006;2023-12-04T07:32:25;100811.91;;;1.75;100.00
79703;BME280;69172;52.352;5.006;2023-12-04T07:34:50;100802.16;;;1.79;100.00
79703;BME280;69172;52.352;5.006;2023-12-04T07:37:16;100803.56;;;1.76;100.00
79703;BME280;69172;52.352;5.006;2023-12-04T07:39:43;100807.84;;;1.77;100.00
79703;BME280;69172;52.352;5.006;2023-12-04T07:42:12;100804.63;;;1.88;100.00
79703;BME280;69172;52.352;5.006;2023-12-04T07:44:37;100812.38;;;1.90;100.00
79703;BME280;69172;52.352;5.006;2023-12-04T07:47:03;100804.97;;;1.83;100.00
79703;BME280;69172;52.352;5.006;2023-12-04T07:49:28;100823.78;;;1.85;100.00
79703;BME280;69172;52.352;5.006;2023-12-04T07:51:59;100810.81;;;1.82;100.00
79703;BME280;69172;52.352;5.006;2023-12-04T07:54:26;100798.13;;;1.82;100.00
79703;BME280;69172;52.352;5.006;2023-12-04T07:56:52;100811.09;;;1.85;100.00
79703;BME280;69172;52.352;5.006;2023-12-04T07:59:18;100809.22;;;1.92;100.00
79703;BME280;69172;52.352;5.006;2023-12-04T08:01:43;100801.19;;;1.88;100.00
79703;BME280;69172;52.352;5.006;2023-12-04T08:04:09;100788.78;;;1.91;100.00
79703;BME280;69172;52.352;5.006;2023-12-04T08:06:35;100789.41;;;1.88;100.00
79703;BME280;69172;52.352;5.006;2023-12-04T08:09:00;100791.94;;;1.88;100.00
79703;BME280;69172;52.352;5.006;2023-12-04T08:11:25;100795.03;;;1.94;100.00
79703;BME280;69172;52.352;5.006;2023-12-04T08:13:52;100788.44;;;1.96;100.00
79703;BME280;69172;52.352;5.006;2023-12-04T08:16:17;100786.97;;;1.98;100.00
79703;BME280;69172;52.352;5.006;2023-12-04T08:18:45;100784.31;;;2.07;99.35
79703;BME280;69172;52.352;5.006;2023-12-04T08:21:11;100781.03;;;2.08;97.88
79703;BME280;69172;52.352;5.006;2023-12-04T08:23:38;100780.91;;;2.06;98.43
79703;BME280;69172;52.352;5.006;2023-12-04T08:26:04;100784.56;;;2.10;97.48
79703;BME280;69172;52.352;5.006;2023-12-04T08:28:30;100788.16;;;2.12;96.57
79703;BME280;69172;52.352;5.006;2023-12-04T08:30:57;100788.56;;;2.16;97.05
79703;BME280;69172;52.352;5.006;2023-12-04T08:33:22;100789.72;;;2.20;97.01
79703;BME280;69172;52.352;5.006;2023-12-04T08:35:47;100783.88;;;2.21;95.83
79703;BME280;69172;52.352;5.006;2023-12-04T08:38:13;100777.28;;;2.23;95.76
79703;BME280;69172;52.352;5.006;2023-12-04T08:40:38;100770.09;;;2.27;93.66
79703;BME280;69172;52.352;5.006;2023-12-04T08:43:03;100768.81;;;2.32;93.36
79703;BME280;69172;52.352;5.006;2023-12-04T08:45:31;100771.13;;;2.39;92.06
79703;BME280;69172;52.352;5.006;2023-12-04T08:47:56;100763.16;;;2.45;91.21
79703;BME280;69172;52.352;5.006;2023-12-04T08:50:22;100772.44;;;2.45;90.05
79703;BME280;69172;52.352;5.006;2023-12-04T08:52:47;100767.72;;;2.39;90.41
79703;BME280;69172;52.352;5.006;2023-12-04T08:55:13;100763.00;;;2.33;91.18
79703;BME280;69172;52.352;5.006;2023-12-04T08:57:40;100761.59;;;2.37;88.38
79703;BME280;69172;52.352;5.006;2023-12-04T09:00:05;100766.56;;;2.35;89.06
79703;BME280;69172;52.352;5.006;2023-12-04T09:02:31;100767.81;;;2.30;89.68
79703;BME280;69172;52.352;5.006;2023-12-04T09:04:57;100761.56;;;2.27;89.68
79703;BME280;69172;52.352;5.006;2023-12-04T09:07:23;100758.91;;;2.25;89.52
79703;BME280;69172;52.352;5.006;2023-12-04T09:09:49;100754.84;;;2.27;89.15
79703;BME280;69172;52.352;5.006;2023-12-04T09:12:14;100764.03;;;2.35;87.78
79703;BME280;69172;52.352;5.006;2023-12-04T09:14:40;100746.25;;;2.35;88.03
79703;BME280;69172;52.352;5.006;2023-12-04T09:17:06;100758.59;;;2.41;86.97
79703;BME280;69172;52.352;5.006;2023-12-04T09:19:32;100753.69;;;2.53;85.57
79703;BME280;69172;52.352;5.006;2023-12-04T09:21:57;100753.91;;;2.56;83.72
79703;BME280;69172;52.352;5.006;2023-12-04T09:24:24;100746.97;;;2.63;84.57
79703;BME280;69172;52.352;5.006;2023-12-04T09:26:49;100752.03;;;2.63;83.72
79703;BME280;69172;52.352;5.006;2023-12-04T09:29:15;100749.63;;;2.65;82.85
79703;BME280;69172;52.352;5.006;2023-12-04T09:31:41;100754.22;;;2.69;83.79
79703;BME280;69172;52.352;5.006;2023-12-04T09:34:07;100748.88;;;2.76;82.73
79703;BME280;69172;52.352;5.006;2023-12-04T09:36:34;100745.44;;;2.75;82.47
79703;BME280;69172;52.352;5.006;2023-12-04T09:39:00;100759.28;;;2.79;81.71
79703;BME280;69172;52.352;5.006;2023-12-04T09:41:26;100747.88;;;2.84;80.49
79703;BME280;69172;52.352;5.006;2023-12-04T09:43:51;100753.22;;;2.87;80.24
79703;BME280;69172;52.352;5.006;2023-12-04T09:46:18;100748.41;;;2.90;79.76
79703;BME280;69172;52.352;5.006;2023-12-04T09:48:43;100745.84;;;3.00;78.79
79703;BME280;69172;52.352;5.006;2023-12-04T09:51:13;100742.94;;;3.06;79.06
79703;BME280;69172;52.352;5.006;2023-12-04T09:53:40;100742.66;;;3.13;78.90
79703;BME280;69172;52.352;5.006;2023-12-04T09:56:08;100751.06;;;3.22;77.90
79703;BME280;69172;52.352;5.006;2023-12-04T09:58:39;100729.22;;;3.14;77.77
79703;BME280;69172;52.352;5.006;2023-12-04T10:01:06;100744.34;;;3.22;76.39
79703;BME280;69172;52.352;5.006;2023-12-04T10:03:33;100741.81;;;3.12;77.27
79703;BME280;69172;52.352;5.006;2023-12-04T10:06:00;100734.28;;;3.14;76.46
79703;BME280;69172;52.352;5.006;2023-12-04T10:08:26;100736.31;;;3.08;77.11
79703;BME280;69172;52.352;5.006;2023-12-04T10:10:51;100749.03;;;3.18;76.08
79703;BME280;69172;52.352;5.006;2023-12-04T10:13:17;100744.06;;;3.19;76.48
79703;BME280;69172;52.352;5.006;2023-12-04T10:15:50;100733.63;;;3.26;74.91
79703;BME280;69172;52.352;5.006;2023-12-04T10:18:31;100716.22;;;3.21;76.15
79703;BME280;69172;52.352;5.006;2023-12-04T10:20:58;100734.16;;;3.22;75.63
79703;BME280;69172;52.352;5.006;2023-12-04T10:23:38;100724.00;;;3.22;75.46
79703;BME280;69172;52.352;5.006;2023-12-04T10:26:05;100717.25;;;3.33;75.14
79703;BME280;69172;52.352;5.006;2023-12-04T10:28:32;100699.81;;;3.37;75.08
79703;BME280;69172;52.352;5.006;2023-12-04T10:31:04;100687.78;;;3.25;74.74
79703;BME280;69172;52.352;5.006;2023-12-04T10:33:32;100688.28;;;3.31;75.46
79703;BME280;69172;52.352;5.006;2023-12-04T10:35:57;100688.00;;;3.38;74.36
79703;BME280;69172;52.352;5.006;2023-12-04T10:38:23;100681.28;;;3.38;76.07
79703;BME280;69172;52.352;5.006;2023-12-04T10:40:48;100673.69;;;3.28;75.88
79703;BME280;69172;52.352;5.006;2023-12-04T10:43:21;100672.50;;;3.35;76.42
79703;BME280;69172;52.352;5.006;2023-12-04T10:45:47;100675.94;;;3.35;76.96
79703;BME280;69172;52.352;5.006;2023-12-04T10:48:15;100674.31;;;3.36;76.88
79703;BME280;69172;52.352;5.006;2023-12-04T10:50:46;100660.69;;;3.35;76.97
79703;BME280;69172;52.352;5.006;2023-12-04T10:53:13;100654.47;;;3.42;76.37
79703;BME280;69172;52.352;5.006;2023-12-04T10:55:39;100654.47;;;3.42;76.78
79703;BME280;69172;52.352;5.006;2023-12-04T10:58:08;100651.53;;;3.47;76.43
79703;BME280;69172;52.352;5.006;2023-12-04T11:00:36;100634.13;;;3.42;76.84
79703;BME280;69172;52.352;5.006;2023-12-04T11:03:08;100638.56;;;3.44;76.63
79703;BME280;69172;52.352;5.006;2023-12-04T11:05:38;100623.19;;;3.43;77.50
79703;BME280;69172;52.352;5.006;2023-12-04T11:08:09;100626.13;;;3.37;76.84
79703;BME280;69172;52.352;5.006;2023-12-04T11:13:17;100625.84;;;3.44;76.64
79703;BME280;69172;52.352;5.006;2023-12-04T11:15:47;100627.22;;;3.51;77.15
79703;BME280;69172;52.352;5.006;2023-12-04T11:18:16;100624.56;;;3.49;76.64
79703;BME280;69172;52.352;5.006;2023-12-04T11:20:56;100614.25;;;3.48;77.03
79703;BME280;69172;52.352;5.006;2023-12-04T11:23:23;100613.00;;;3.53;76.73
79703;BME280;69172;52.352;5.006;2023-12-04T11:25:49;100605.88;;;3.49;77.32
79703;BME280;69172;52.352;5.006;2023-12-04T11:28:15;100600.41;;;3.54;75.62
79703;BME280;69172;52.352;5.006;2023-12-04T11:30:42;100594.56;;;3.45;76.91
79703;BME280;69172;52.352;5.006;2023-12-04T11:33:09;100599.41;;;3.52;75.96
79703;BME280;69172;52.352;5.006;2023-12-04T11:35:38;100588.09;;;3.49;77.22
79703;BME280;69172;52.352;5.006;2023-12-04T11:38:05;100594.56;;;3.55;75.96
79703;BME280;69172;52.352;5.006;2023-12-04T11:40:35;100583.13;;;3.50;76.24
79703;BME280;69172;52.352;5.006;2023-12-04T11:43:28;100580.94;;;3.55;75.29
79703;BME280;69172;52.352;5.006;2023-12-04T11:46:10;100587.75;;;3.66;75.25
79703;BME280;69172;52.352;5.006;2023-12-04T11:48:38;100570.78;;;3.55;75.30
79703;BME280;69172;52.352;5.006;2023-12-04T11:51:07;100581.13;;;3.68;75.91
79703;BME280;69172;52.352;5.006;2023-12-04T11:53:39;100576.34;;;3.61;75.87
79703;BME280;69172;52.352;5.006;2023-12-04T11:56:12;100575.41;;;3.71;76.15
79703;BME280;69172;52.352;5.006;2023-12-04T11:58:44;100572.63;;;3.68;76.77
79703;BME280;69172;52.352;5.006;2023-12-04T12:01:12;100572.25;;;3.63;75.96
79703;BME280;69172;52.352;5.006;2023-12-04T12:03:38;100572.38;;;3.65;76.92
79703;BME280;69172;52.352;5.006;2023-12-04T12:06:05;100581.25;;;3.70;77.08
79703;BME280;69172;52.352;5.006;2023-12-04T12:08:31;100570.97;;;3.68;77.91
79703;BME280;69172;52.352;5.006;2023-12-04T12:10:57;100559.06;;;3.57;77.84
79703;BME280;69172;52.352;5.006;2023-12-04T12:13:23;100549.38;;;3.63;77.59
79703;BME280;69172;52.352;5.006;2023-12-04T12:15:53;100565.97;;;3.70;78.41
79703;BME280;69172;52.352;5.006;2023-12-04T12:18:21;100572.19;;;3.73;78.12
79703;BME280;69172;52.352;5.006;2023-12-04T12:20:48;100559.91;;;3.68;78.39
79703;BME280;69172;52.352;5.006;2023-12-04T12:23:15;100556.88;;;3.61;78.21
79703;BME280;69172;52.352;5.006;2023-12-04T12:25:47;100558.34;;;3.70;79.18
79703;BME280;69172;52.352;5.006;2023-12-04T12:28:15;100533.78;;;3.58;79.83
79703;BME280;69172;52.352;5.006;2023-12-04T12:30:46;100544.63;;;3.68;80.70
79703;BME280;69172;52.352;5.006;2023-12-04T12:33:15;100541.59;;;3.72;80.66
79703;BME280;69172;52.352;5.006;2023-12-04T12:35:43;100532.66;;;3.77;81.52
79703;BME280;69172;52.352;5.006;2023-12-04T12:38:08;100537.19;;;3.81;80.51
79703;BME280;69172;52.352;5.006;2023-12-04T12:40:41;100532.66;;;3.77;80.78
79703;BME280;69172;52.352;5.006;2023-12-04T12:43:09;100526.09;;;3.69;80.75
79703;BME280;69172;52.352;5.006;2023-12-04T12:45:42;100520.19;;;3.58;81.06
79703;BME280;69172;52.352;5.006;2023-12-04T12:48:15;100526.97;;;3.69;80.71
79703;BME280;69172;52.352;5.006;2023-12-04T12:50:50;100515.09;;;3.80;81.42
79703;BME280;69172;52.352;5.006;2023-12-04T12:53:17;100515.56;;;3.86;79.62
79703;BME280;69172;52.352;5.006;2023-12-04T12:55:56;100513.72;;;3.73;81.36